Time;durP1;ratioP1;P1;durP2;ratioP2;P2;SDS_P1;SDS_P2;PMS_P1;PMS_P2;Temp;Humidity;BMP_temperature;BMP_pressure;BME280_temperature;BME280_humidity;BME280_pressure;Samples;Min_cycle;Max_cycle;Signal;HPM_P1;HPM_P2
2022/09/27 00:01:14;;;;;;;9.63;8.70;;;10.70;94.70;;;;;;4996957;28;20174;-88
2022/09/27 00:03:40;;;;;;;9.03;8.13;;;10.70;94.80;;;;;;5000318;28;20707;-87
2022/09/27 00:06:10;;;;;;;9.03;8.10;;;10.70;94.70;;;;;;5000284;28;20178;-87
2022/09/27 00:08:36;;;;;;;9.17;6.93;;;10.70;94.70;;;;;;4999645;28;20594;-87
2022/09/27 00:11:08;;;;;;;7.53;6.83;;;10.70;94.70;;;;;;5000542;28;20541;-87
2022/09/27 00:13:33;;;;;;;8.37;7.57;;;10.70;94.70;;;;;;4999720;28;20170;-88
2022/09/27 00:16:03;;;;;;;9.40;7.33;;;10.70;94.70;;;;;;5000398;28;20257;-87
2022/09/27 00:18:30;;;;;;;10.53;8.37;;;10.70;94.70;;;;;;4999991;28;20178;-87
2022/09/27 00:20:56;;;;;;;8.73;7.17;;;10.70;94.70;;;;;;5000324;28;20196;-87
2022/09/27 00:23:21;;;;;;;9.00;7.03;;;10.70;94.70;;;;;;4999857;28;20202;-88
2022/09/27 00:25:55;;;;;;;8.23;7.53;;;10.70;94.70;;;;;;5000618;28;20679;-88
2022/09/27 00:28:20;;;;;;;8.00;7.30;;;10.70;94.70;;;;;;4999503;28;20170;-87
2022/09/27 00:30:46;;;;;;;7.87;7.07;;;10.70;94.70;;;;;;4999656;28;20178;-87
2022/09/27 00:33:11;;;;;;;8.93;8.07;;;10.70;94.80;;;;;;4999463;28;20198;-87
2022/09/27 00:35:37;;;;;;;7.90;7.13;;;10.70;94.80;;;;;;4998226;28;20192;-87
2022/09/27 00:38:02;;;;;;;8.70;7.80;;;10.70;94.80;;;;;;4998899;28;20174;-87
2022/09/27 00:40:28;;;;;;;7.73;7.03;;;10.70;94.80;;;;;;4999036;28;20210;-88
2022/09/27 00:42:54;;;;;;;7.27;6.67;;;10.70;94.80;;;;;;4998519;28;20288;-87
2022/09/27 00:45:19;;;;;;;9.00;7.13;;;10.70;94.80;;;;;;4997147;28;20178;-88
2022/09/27 00:47:58;;;;;;;8.17;7.47;;;10.70;94.90;;;;;;4998681;28;20683;-88
2022/09/27 00:50:38;;;;;;;8.20;7.50;;;10.70;94.90;;;;;;4998195;28;20563;-88
2022/09/27 00:53:14;;;;;;;10.27;7.60;;;10.70;94.90;;;;;;4997414;28;20224;-88
2022/09/27 00:55:51;;;;;;;12.17;7.80;;;10.70;94.90;;;;;;4997401;28;20153;-88
2022/09/27 00:58:23;;;;;;;7.87;7.03;;;10.70;94.90;;;;;;4997287;28;20212;-88
2022/09/27 01:00:52;;;;;;;7.67;6.97;;;10.70;95.00;;;;;;4997137;28;20257;-88
2022/09/27 01:03:41;;;;;;;8.00;7.17;;;10.60;95.00;;;;;;4997360;28;20285;-88
2022/09/27 01:06:09;;;;;;;7.00;6.40;;;10.70;95.00;;;;;;4997092;28;20208;-89
2022/09/27 01:08:34;;;;;;;7.47;6.77;;;10.70;95.00;;;;;;4997620;28;20716;-88
2022/09/27 01:11:39;;;;;;;7.10;6.50;;;10.60;95.00;;;;;;4997153;28;20201;-88
2022/09/27 01:14:29;;;;;;;7.53;6.90;;;10.70;95.00;;;;;;4981120;28;20193;-88
2022/09/27 01:17:08;;;;;;;8.60;6.77;;;10.70;95.10;;;;;;4997454;28;20573;-89
2022/09/27 01:19:57;;;;;;;7.50;6.83;;;10.70;95.00;;;;;;4996826;28;20237;-88
2022/09/27 01:22:29;;;;;;;6.97;6.27;;;10.60;95.10;;;;;;4997032;28;20193;-87
2022/09/27 01:25:14;;;;;;;7.13;6.53;;;10.60;95.10;;;;;;4998789;28;20216;-92
2022/09/27 01:27:58;;;;;;;8.90;6.53;;;10.60;95.10;;;;;;4997779;28;20157;-88
2022/09/27 01:31:02;;;;;;;6.97;6.37;;;10.60;95.20;;;;;;4996905;28;20157;-88
2022/09/27 01:33:57;;;;;;;7.10;6.40;;;10.60;95.20;;;;;;4996336;28;20194;-88
2022/09/27 01:37:00;;;;;;;6.90;6.30;;;10.60;95.20;;;;;;4996839;28;20169;-88
2022/09/27 01:39:52;;;;;;;7.37;6.67;;;10.60;95.20;;;;;;4996389;28;20184;-88
2022/09/27 01:42:48;;;;;;;7.23;6.50;;;10.60;95.30;;;;;;4996257;28;20210;-88
2022/09/27 01:45:20;;;;;;;8.57;6.70;;;10.60;95.20;;;;;;4996516;28;20189;-88
2022/09/27 01:47:54;;;;;;;8.33;7.07;;;10.60;95.30;;;;;;4996387;28;20212;-88
2022/09/27 01:50:22;;;;;;;8.30;7.53;;;10.60;95.30;;;;;;4996342;28;20213;-89
2022/09/27 01:52:53;;;;;;;8.60;7.73;;;10.60;95.30;;;;;;4994902;28;20588;-88
2022/09/27 01:55:23;;;;;;;9.50;8.60;;;10.60;95.30;;;;;;4996581;28;20184;-88
2022/09/27 01:57:56;;;;;;;9.23;8.33;;;10.60;95.30;;;;;;4996189;28;20186;-88
2022/09/27 02:00:22;;;;;;;9.57;8.67;;;10.60;95.30;;;;;;4996017;28;20176;-88
2022/09/27 02:02:54;;;;;;;9.03;8.13;;;10.60;95.40;;;;;;4996377;28;20245;-88
2022/09/27 02:05:25;;;;;;;10.47;9.40;;;10.60;95.40;;;;;;4996037;28;20158;-88
2022/09/27 02:08:09;;;;;;;10.23;9.23;;;10.60;95.40;;;;;;4996045;28;20173;-88
2022/09/27 02:10:38;;;;;;;9.90;8.90;;;10.60;95.40;;;;;;4996496;28;20158;-88
2022/09/27 02:13:27;;;;;;;10.03;9.13;;;10.60;95.40;;;;;;4996516;28;20190;-88
2022/09/27 02:16:14;;;;;;;11.07;9.53;;;10.60;95.40;;;;;;4996373;28;20174;-88
2022/09/27 02:18:54;;;;;;;12.30;9.70;;;10.60;95.40;;;;;;4996025;28;20759;-88
2022/09/27 02:21:22;;;;;;;10.73;9.73;;;10.60;95.40;;;;;;4995776;28;20293;-88
2022/09/27 02:23:56;;;;;;;11.23;10.07;;;10.60;95.40;;;;;;4996008;28;20208;-87
2022/09/27 02:26:30;;;;;;;13.20;11.83;;;10.60;95.50;;;;;;4996134;28;20241;-87
2022/09/27 02:29:20;;;;;;;12.70;11.50;;;10.60;95.50;;;;;;4995633;28;20158;-88
2022/09/27 02:31:45;;;;;;;13.63;11.33;;;10.60;95.50;;;;;;4995450;28;20198;-88
2022/09/27 02:34:26;;;;;;;13.30;11.90;;;10.60;95.50;;;;;;4995657;28;20540;-88
2022/09/27 02:36:52;;;;;;;14.57;12.20;;;10.60;95.60;;;;;;4996096;28;20174;-87
2022/09/27 02:39:18;;;;;;;12.73;11.30;;;10.60;95.60;;;;;;4995886;28;20174;-88
2022/09/27 02:41:44;;;;;;;12.10;11.00;;;10.60;95.60;;;;;;4995613;28;20677;-88
2022/09/27 02:44:13;;;;;;;14.37;12.07;;;10.60;95.60;;;;;;4995444;28;20208;-87
2022/09/27 02:47:19;;;;;;;17.77;13.67;;;10.60;95.60;;;;;;4995696;28;20536;-88
2022/09/27 02:50:00;;;;;;;14.47;13.07;;;10.60;95.60;;;;;;4973375;28;20190;-87
2022/09/27 02:52:55;;;;;;;14.33;12.93;;;10.60;95.60;;;;;;4995575;28;20198;-87
2022/09/27 02:56:00;;;;;;;14.40;13.00;;;10.60;95.60;;;;;;4991918;28;20186;-88
2022/09/27 02:59:01;;;;;;;14.40;12.90;;;10.60;95.70;;;;;;4995764;28;20197;-89
2022/09/27 03:01:54;;;;;;;14.73;13.13;;;10.60;95.70;;;;;;4995753;28;20198;-89
2022/09/27 03:04:24;;;;;;;15.63;14.00;;;10.60;95.70;;;;;;4995498;28;20229;-87
2022/09/27 03:06:52;;;;;;;15.83;14.23;;;10.60;95.70;;;;;;4995603;28;20499;-88
2022/09/27 03:09:26;;;;;;;16.97;15.23;;;10.60;95.70;;;;;;4995915;28;20177;-87
2022/09/27 03:11:52;;;;;;;19.47;15.63;;;10.60;95.70;;;;;;4995917;28;20228;-89
2022/09/27 03:14:18;;;;;;;18.60;16.33;;;10.60;95.80;;;;;;4995213;28;20180;-88
2022/09/27 03:16:43;;;;;;;18.27;15.37;;;10.60;95.70;;;;;;4995463;28;20178;-88
2022/09/27 03:19:09;;;;;;;19.03;16.90;;;10.60;95.80;;;;;;4995421;28;20185;-88
2022/09/27 03:21:35;;;;;;;19.70;17.60;;;10.60;95.80;;;;;;4995127;28;20743;-88
2022/09/27 03:24:01;;;;;;;18.10;15.60;;;10.60;95.80;;;;;;4994824;28;20205;-88
2022/09/27 03:26:27;;;;;;;24.20;17.07;;;10.60;95.80;;;;;;4995437;28;20205;-88
2022/09/27 03:28:52;;;;;;;21.90;17.10;;;10.60;95.80;;;;;;4994987;28;20237;-88
2022/09/27 03:31:18;;;;;;;22.17;16.80;;;10.70;95.80;;;;;;4995098;28;20194;-88
2022/09/27 03:33:44;;;;;;;20.30;17.73;;;10.60;95.90;;;;;;4995518;28;20211;-88
2022/09/27 03:36:10;;;;;;;23.27;18.90;;;10.70;95.90;;;;;;4994790;28;20200;-88
2022/09/27 03:38:36;;;;;;;22.60;19.17;;;10.60;95.90;;;;;;4995095;28;20174;-87
2022/09/27 03:41:02;;;;;;;24.20;19.67;;;10.70;95.90;;;;;;4995193;28;20539;-88
2022/09/27 03:43:27;;;;;;;26.40;20.53;;;10.70;95.90;;;;;;4995153;28;20201;-87
2022/09/27 03:45:53;;;;;;;26.27;20.63;;;10.70;95.90;;;;;;4994660;28;20165;-87
2022/09/27 03:48:19;;;;;;;31.43;23.23;;;10.70;95.90;;;;;;4994854;28;20170;-87
2022/09/27 03:50:44;;;;;;;28.63;21.37;;;10.70;96.00;;;;;;4994613;28;20192;-88
2022/09/27 03:53:10;;;;;;;27.50;22.87;;;10.70;95.90;;;;;;4994870;28;20208;-88
2022/09/27 03:55:35;;;;;;;28.27;22.37;;;10.70;96.00;;;;;;4993416;28;20560;-88
2022/09/27 03:58:01;;;;;;;26.57;21.93;;;10.70;95.90;;;;;;4995040;28;20182;-87
2022/09/27 04:00:27;;;;;;;25.07;20.07;;;10.70;96.00;;;;;;4994790;28;20178;-88
2022/09/27 04:02:53;;;;;;;23.30;18.47;;;10.70;96.00;;;;;;4994534;28;20201;-87
2022/09/27 04:05:18;;;;;;;22.40;16.77;;;10.70;95.90;;;;;;4994633;28;20182;-88
2022/09/27 04:07:48;;;;;;;19.80;14.37;;;10.60;95.90;;;;;;4994453;28;20170;-87
2022/09/27 04:10:14;;;;;;;16.30;11.80;;;10.60;95.90;;;;;;4994560;28;20174;-88
2022/09/27 04:12:40;;;;;;;14.73;11.90;;;10.50;95.90;;;;;;4994285;28;20205;-88
2022/09/27 04:15:07;;;;;;;19.00;13.23;;;10.50;95.90;;;;;;4994914;28;20509;-88
2022/09/27 04:17:33;;;;;;;15.37;11.70;;;10.50;95.90;;;;;;4994681;28;20201;-87
2022/09/27 04:19:58;;;;;;;16.40;12.67;;;10.60;95.90;;;;;;4995005;28;20202;-87
2022/09/27 04:22:24;;;;;;;16.20;13.27;;;10.60;95.90;;;;;;4994844;28;20277;-88
2022/09/27 04:24:49;;;;;;;15.13;13.20;;;10.60;95.80;;;;;;4994804;28;20676;-88
2022/09/27 04:27:16;;;;;;;16.20;12.17;;;10.60;95.80;;;;;;4994588;28;20178;-87
2022/09/27 04:29:44;;;;;;;18.10;11.80;;;10.60;95.80;;;;;;4995422;28;20171;-87
2022/09/27 04:32:13;;;;;;;18.53;13.63;;;10.60;95.80;;;;;;4994359;28;20193;-87
2022/09/27 04:37:23;;;;;;;20.13;15.23;;;10.60;95.80;;;;;;4994581;28;20161;-88
2022/09/27 04:39:48;;;;;;;25.33;16.80;;;10.70;95.90;;;;;;4994534;28;20645;-87
2022/09/27 04:42:15;;;;;;;28.00;18.30;;;10.70;95.80;;;;;;4994246;28;20564;-88
2022/09/27 04:44:40;;;;;;;26.77;17.70;;;10.70;95.80;;;;;;4993182;28;20190;-88
2022/09/27 04:47:06;;;;;;;34.23;18.80;;;10.70;95.80;;;;;;4994297;28;20170;-88
2022/09/27 04:49:32;;;;;;;31.40;19.10;;;10.80;95.80;;;;;;4996751;28;20174;-87
2022/09/27 04:51:57;;;;;;;32.10;19.63;;;10.80;95.80;;;;;;4997976;28;20193;-88
2022/09/27 04:54:23;;;;;;;31.43;19.40;;;10.80;95.90;;;;;;4997487;28;20178;-88
2022/09/27 04:56:49;;;;;;;33.63;20.40;;;10.80;95.80;;;;;;4997931;28;20174;-88
2022/09/27 04:59:14;;;;;;;31.77;21.53;;;10.80;95.80;;;;;;4997910;28;20177;-88
2022/09/27 05:01:40;;;;;;;33.97;20.60;;;10.80;95.80;;;;;;4998299;28;20668;-87
2022/09/27 05:04:06;;;;;;;34.20;19.73;;;10.80;95.80;;;;;;4997708;28;20198;-88
2022/09/27 05:06:32;;;;;;;35.70;22.50;;;10.90;95.80;;;;;;4997917;28;20171;-88
2022/09/27 05:08:57;;;;;;;40.43;22.70;;;10.80;95.80;;;;;;4996216;28;20210;-88
2022/09/27 05:11:24;;;;;;;35.00;23.23;;;10.90;95.80;;;;;;4997438;28;20221;-88
2022/09/27 05:13:49;;;;;;;39.20;23.57;;;10.90;95.80;;;;;;4997791;28;20723;-89
2022/09/27 05:16:16;;;;;;;39.37;23.43;;;10.80;95.70;;;;;;4997781;28;20209;-88
2022/09/27 05:18:41;;;;;;;41.60;24.57;;;10.80;95.70;;;;;;4997425;28;20190;-88
2022/09/27 05:21:07;;;;;;;34.90;21.60;;;10.80;95.70;;;;;;4997635;28;20193;-89
2022/09/27 05:23:33;;;;;;;34.77;20.03;;;10.80;95.70;;;;;;4997775;28;20198;-87
2022/09/27 05:26:03;;;;;;;30.37;19.73;;;10.80;95.70;;;;;;4997841;28;20181;-87
2022/09/27 05:28:30;;;;;;;27.20;18.00;;;10.80;95.70;;;;;;4998227;28;20162;-87
2022/09/27 05:30:55;;;;;;;34.53;18.10;;;10.70;95.60;;;;;;4998052;28;20162;-87
2022/09/27 05:33:21;;;;;;;27.73;16.93;;;10.80;95.60;;;;;;4997502;28;20554;-88
2022/09/27 05:35:54;;;;;;;32.53;17.60;;;10.70;95.60;;;;;;4997584;28;20185;-87
2022/09/27 05:38:20;;;;;;;29.13;17.60;;;10.80;95.60;;;;;;4998242;28;20174;-87
2022/09/27 05:40:49;;;;;;;30.40;17.03;;;10.80;95.70;;;;;;4997776;28;20228;-88
2022/09/27 05:43:14;;;;;;;21.33;14.57;;;10.80;95.60;;;;;;4997621;28;20253;-87
2022/09/27 05:45:41;;;;;;;27.57;16.20;;;10.80;95.60;;;;;;4998044;28;20170;-88
2022/09/27 05:48:07;;;;;;;26.87;15.93;;;10.80;95.60;;;;;;4997751;28;20172;-87
2022/09/27 05:50:33;;;;;;;29.53;15.67;;;10.80;95.60;;;;;;4998085;28;20213;-92
2022/09/27 05:52:59;;;;;;;29.80;13.67;;;10.80;95.60;;;;;;4995763;28;20206;-87
2022/09/27 05:55:24;;;;;;;25.97;14.97;;;10.80;95.60;;;;;;4996472;28;20258;-88
2022/09/27 05:58:03;;;;;;;22.83;12.47;;;10.80;95.60;;;;;;4996703;28;20540;-88
2022/09/27 06:00:30;;;;;;;21.80;11.73;;;10.80;95.60;;;;;;4996005;28;20181;-88
2022/09/27 06:03:05;;;;;;;19.40;8.50;;;10.80;95.60;;;;;;4996793;28;20206;-88
2022/09/27 06:05:35;;;;;;;15.07;6.63;;;10.70;95.60;;;;;;4996961;28;20154;-87
2022/09/27 06:08:05;;;;;;;16.30;6.50;;;10.70;95.60;;;;;;4997061;28;20174;-88
2022/09/27 06:10:31;;;;;;;13.07;5.43;;;10.70;95.60;;;;;;4996142;28;20158;-88
2022/09/27 06:13:03;;;;;;;7.20;5.23;;;10.70;95.60;;;;;;4995877;28;20284;-88
2022/09/27 06:15:31;;;;;;;17.10;5.00;;;10.70;95.50;;;;;;4996307;28;20170;-88
2022/09/27 06:18:01;;;;;;;7.20;3.53;;;10.70;95.60;;;;;;4996102;28;20176;-87
2022/09/27 06:20:27;;;;;;;8.17;3.27;;;10.70;95.60;;;;;;4996144;28;20675;-88
2022/09/27 06:22:53;;;;;;;11.40;3.70;;;10.60;95.50;;;;;;4996009;28;20235;-88
2022/09/27 06:25:19;;;;;;;9.27;4.17;;;10.70;95.50;;;;;;4996178;28;20718;-88
2022/09/27 06:27:44;;;;;;;9.50;5.17;;;10.70;95.50;;;;;;4996210;28;20173;-88
2022/09/27 06:30:11;;;;;;;12.20;5.83;;;10.70;95.50;;;;;;4996158;28;20644;-88
2022/09/27 06:32:37;;;;;;;16.33;5.80;;;10.70;95.50;;;;;;4995879;28;20196;-88
2022/09/27 06:35:04;;;;;;;7.83;5.30;;;10.80;95.50;;;;;;4996169;28;20202;-89
2022/09/27 06:37:30;;;;;;;9.40;5.23;;;10.80;95.50;;;;;;4996032;28;20154;-89
2022/09/27 06:39:56;;;;;;;9.27;4.83;;;10.80;95.50;;;;;;4995835;28;20213;-88
2022/09/27 06:42:21;;;;;;;11.47;5.13;;;10.80;95.50;;;;;;4995621;28;20194;-88
2022/09/27 06:44:48;;;;;;;9.80;5.00;;;10.90;95.50;;;;;;4994284;28;20178;-88
2022/09/27 06:47:17;;;;;;;9.40;5.07;;;10.90;95.50;;;;;;4995656;28;20198;-88
2022/09/27 06:49:42;;;;;;;11.37;4.47;;;11.00;95.50;;;;;;4995509;28;20170;-91
2022/09/27 06:52:08;;;;;;;12.30;4.53;;;11.00;95.50;;;;;;4995385;28;20544;-87
2022/09/27 06:54:33;;;;;;;12.70;4.37;;;11.00;95.50;;;;;;4995683;28;20190;-87
2022/09/27 06:56:59;;;;;;;10.63;4.03;;;11.10;95.50;;;;;;4995428;28;20182;-88
2022/09/27 07:02:09;;;;;;;10.87;4.20;;;11.00;95.50;;;;;;4995462;28;20196;-87
2022/09/27 07:04:35;;;;;;;15.73;5.17;;;11.00;95.50;;;;;;4995487;28;20249;-87
2022/09/27 07:07:00;;;;;;;9.87;4.17;;;11.10;95.50;;;;;;4995050;28;20265;-87
2022/09/27 07:09:26;;;;;;;11.40;4.17;;;11.10;95.50;;;;;;4995420;28;20166;-86
2022/09/27 07:11:53;;;;;;;13.73;6.87;;;11.20;95.50;;;;;;4994341;28;20531;-87
2022/09/27 07:14:19;;;;;;;12.50;6.43;;;11.00;95.40;;;;;;4995192;28;20258;-87
2022/09/27 07:16:45;;;;;;;9.63;5.07;;;11.10;95.40;;;;;;4995135;28;20609;-87
2022/09/27 07:19:12;;;;;;;10.03;3.53;;;11.10;95.40;;;;;;4995422;28;20174;-87
2022/09/27 07:21:37;;;;;;;11.70;5.07;;;11.10;95.30;;;;;;4995510;28;20743;-87
2022/09/27 07:24:03;;;;;;;8.80;4.13;;;11.00;95.30;;;;;;4995514;28;20213;-87
2022/09/27 07:26:29;;;;;;;8.23;3.93;;;11.10;95.40;;;;;;4994749;28;20265;-87
2022/09/27 07:28:55;;;;;;;10.80;3.60;;;11.10;95.30;;;;;;4994793;28;20264;-86
2022/09/27 07:31:21;;;;;;;12.30;3.53;;;11.00;95.10;;;;;;4995271;28;20186;-87
2022/09/27 07:33:47;;;;;;;8.37;3.20;;;11.00;95.20;;;;;;4994628;28;20601;-88
2022/09/27 07:36:13;;;;;;;5.10;2.63;;;11.00;95.20;;;;;;4995412;28;20649;-87
2022/09/27 07:38:38;;;;;;;6.77;3.00;;;11.00;95.10;;;;;;4995061;28;20179;-88
2022/09/27 07:41:08;;;;;;;4.70;2.33;;;11.10;95.20;;;;;;4995178;28;20174;-88
2022/09/27 07:43:34;;;;;;;8.77;2.00;;;11.00;95.00;;;;;;4994932;28;20190;-88
2022/09/27 07:46:00;;;;;;;4.00;2.07;;;10.90;95.00;;;;;;4995331;28;20220;-88
2022/09/27 07:48:25;;;;;;;6.03;2.10;;;10.90;95.00;;;;;;4994588;28;20253;-87
2022/09/27 07:50:52;;;;;;;5.70;1.70;;;11.10;95.00;;;;;;4994520;28;20240;-88
2022/09/27 07:53:17;;;;;;;7.37;1.80;;;11.00;94.70;;;;;;4994921;28;20209;-88
2022/09/27 07:55:43;;;;;;;2.83;1.60;;;10.90;94.70;;;;;;4995788;28;20170;-88
2022/09/27 07:58:10;;;;;;;4.00;1.70;;;11.00;94.70;;;;;;4996100;28;20256;-88
2022/09/27 08:00:38;;;;;;;3.63;1.60;;;11.00;94.60;;;;;;4995754;28;20174;-88
2022/09/27 08:03:09;;;;;;;7.33;1.90;;;11.00;94.50;;;;;;4995547;28;20252;-89
2022/09/27 08:05:35;;;;;;;8.40;2.03;;;11.00;94.40;;;;;;4996090;28;20169;-87
2022/09/27 08:08:01;;;;;;;4.27;2.27;;;10.90;94.30;;;;;;4995536;28;20537;-87
2022/09/27 08:10:30;;;;;;;4.70;2.20;;;11.10;94.30;;;;;;4994686;28;20245;-88
2022/09/27 08:12:57;;;;;;;8.63;3.00;;;11.10;94.30;;;;;;4995441;28;20200;-88
2022/09/27 08:15:23;;;;;;;7.53;2.40;;;11.20;94.30;;;;;;4995880;28;20177;-89
2022/09/27 08:17:49;;;;;;;10.43;2.30;;;11.20;94.20;;;;;;4995960;28;20178;-88
2022/09/27 08:20:15;;;;;;;2.83;2.13;;;11.30;94.30;;;;;;4996014;28;20177;-88
2022/09/27 08:22:42;;;;;;;4.03;2.23;;;11.30;94.30;;;;;;4997496;28;20201;-88
2022/09/27 08:25:08;;;;;;;6.20;2.10;;;11.30;94.30;;;;;;4998321;28;20182;-88
2022/09/27 08:27:33;;;;;;;6.30;2.20;;;11.30;94.20;;;;;;5000213;28;20224;-87
2022/09/27 08:29:59;;;;;;;3.87;1.90;;;11.20;94.20;;;;;;4999177;28;20170;-87
2022/09/27 08:32:26;;;;;;;4.00;2.30;;;11.30;94.20;;;;;;5000658;28;20194;-92
2022/09/27 08:34:52;;;;;;;7.07;2.70;;;11.20;94.10;;;;;;5005237;28;20172;-88
2022/09/27 08:37:18;;;;;;;4.17;2.10;;;11.30;94.20;;;;;;4999340;28;20197;-87
2022/09/27 08:39:43;;;;;;;4.47;2.53;;;11.20;94.10;;;;;;5000442;28;20618;-87
2022/09/27 08:42:54;;;;;;;3.60;2.53;;;11.20;94.10;;;;;;5001254;28;20233;-87
2022/09/27 08:45:43;;;;;;;5.97;2.60;;;11.10;94.00;;;;;;5000745;28;20186;-87
2022/09/27 08:48:09;;;;;;;3.40;2.30;;;11.00;93.80;;;;;;5003332;28;20681;-88
2022/09/27 08:50:42;;;;;;;4.17;2.27;;;11.10;93.90;;;;;;5000569;28;20278;-87
2022/09/27 08:53:21;;;;;;;3.97;2.23;;;11.00;93.70;;;;;;5000513;28;20186;-88
2022/09/27 08:55:49;;;;;;;3.37;2.10;;;11.10;93.80;;;;;;5001390;28;20158;-87
2022/09/27 08:59:04;;;;;;;5.83;2.63;;;11.20;93.80;;;;;;4998962;28;20265;-87
2022/09/27 09:01:29;;;;;;;6.27;2.70;;;11.20;93.70;;;;;;4990749;28;20213;-87
2022/09/27 09:03:59;;;;;;;3.63;2.67;;;11.10;93.60;;;;;;4999209;28;20253;-87
2022/09/27 09:06:27;;;;;;;5.13;3.43;;;11.00;93.50;;;;;;5000333;28;20181;-88
2022/09/27 09:09:21;;;;;;;6.27;3.90;;;11.10;93.50;;;;;;4999245;28;20521;-87
2022/09/27 09:15:13;;;;;;;3.33;2.70;;;11.10;93.30;;;;;;5000404;28;20643;-88
2022/09/27 09:18:03;;;;;;;3.70;2.23;;;11.20;93.40;;;;;;5002781;28;20161;-92
2022/09/27 09:20:54;;;;;;;3.40;2.20;;;11.20;93.40;;;;;;5004925;28;20166;-91
2022/09/27 09:23:45;;;;;;;4.07;2.10;;;11.20;93.20;;;;;;5001962;28;20205;-90
2022/09/27 09:26:32;;;;;;;3.23;1.90;;;11.20;93.30;;;;;;4998836;28;20647;-86
2022/09/27 09:29:27;;;;;;;1.90;1.80;;;11.30;93.20;;;;;;4999053;28;20691;-88
2022/09/27 09:32:31;;;;;;;2.90;1.90;;;11.30;93.30;;;;;;4998019;28;20598;-86
2022/09/27 09:35:06;;;;;;;2.20;1.80;;;11.30;93.30;;;;;;4976210;28;20186;-92
2022/09/27 09:37:35;;;;;;;2.40;2.00;;;11.30;93.20;;;;;;4997377;28;20189;-86
2022/09/27 09:40:23;;;;;;;5.83;1.80;;;11.20;93.20;;;;;;5000957;28;20249;-87
2022/09/27 09:42:59;;;;;;;2.80;1.73;;;11.20;93.10;;;;;;4981706;28;20217;-87
2022/09/27 09:45:35;;;;;;;2.87;1.97;;;11.30;93.20;;;;;;5001546;28;20154;-87
2022/09/27 09:48:31;;;;;;;1.90;1.80;;;11.20;93.10;;;;;;5002901;28;20150;-87
2022/09/27 09:51:01;;;;;;;4.27;1.90;;;11.20;93.00;;;;;;5000233;28;20182;-86
2022/09/27 09:53:41;;;;;;;1.93;1.80;;;11.10;92.90;;;;;;5002866;28;20170;-88
2022/09/27 09:56:25;;;;;;;2.47;1.70;;;11.10;92.90;;;;;;5002286;28;20193;-88
2022/09/27 09:59:01;;;;;;;3.10;2.10;;;11.10;93.10;;;;;;4999430;28;20154;-87
2022/09/27 10:01:29;;;;;;;2.37;1.80;;;11.20;93.10;;;;;;4999462;28;20193;-89
2022/09/27 10:03:55;;;;;;;1.43;1.40;;;11.20;93.20;;;;;;5000809;28;20200;-87
2022/09/27 10:06:23;;;;;;;2.33;1.87;;;11.20;93.00;;;;;;5000268;28;20216;-87
2022/09/27 10:08:53;;;;;;;6.30;1.90;;;11.10;93.00;;;;;;4998417;28;20166;-88
2022/09/27 10:11:23;;;;;;;2.10;1.90;;;11.00;92.90;;;;;;4997249;28;20205;-88
2022/09/27 10:13:50;;;;;;;2.33;1.90;;;11.00;93.00;;;;;;4999106;28;20165;-88
2022/09/27 10:16:18;;;;;;;2.73;2.03;;;11.00;92.90;;;;;;4995639;28;20596;-88
2022/09/27 10:18:45;;;;;;;2.10;1.70;;;11.10;93.20;;;;;;4997962;28;20170;-87
2022/09/27 10:21:23;;;;;;;2.43;1.70;;;11.00;92.90;;;;;;4996388;28;20576;-90
2022/09/27 10:24:14;;;;;;;1.80;1.70;;;10.90;92.60;;;;;;4994439;28;20201;-90
2022/09/27 10:26:47;;;;;;;2.40;1.60;;;11.00;92.90;;;;;;5006367;28;20166;-91
2022/09/27 10:29:28;;;;;;;2.00;1.80;;;10.90;92.80;;;;;;5101479;22;20229;-91
2022/09/27 10:31:54;;;;;;;2.07;1.90;;;11.00;93.00;;;;;;5017261;28;20208;-90
2022/09/27 10:34:34;;;;;;;3.20;1.83;;;11.00;93.00;;;;;;5013998;28;20268;-91
2022/09/27 10:37:06;;;;;;;4.23;2.03;;;11.00;93.00;;;;;;5013932;28;20173;-92
2022/09/27 10:39:32;;;;;;;2.77;1.80;;;11.20;93.20;;;;;;5014144;28;20643;-90
2022/09/27 10:41:58;;;;;;;2.23;1.90;;;11.10;93.00;;;;;;5013697;28;20204;-90
2022/09/27 10:44:30;;;;;;;1.80;1.57;;;11.00;93.00;;;;;;5013931;28;20201;-91
2022/09/27 10:47:06;;;;;;;1.83;1.60;;;11.00;93.00;;;;;;5012470;28;20170;-91
2022/09/27 10:49:35;;;;;;;4.10;1.80;;;10.90;92.90;;;;;;5013708;28;20265;-89
2022/09/27 10:52:07;;;;;;;2.40;1.80;;;10.90;92.90;;;;;;5017734;28;20251;-90
2022/09/27 10:54:36;;;;;;;4.67;1.90;;;11.00;93.00;;;;;;5015148;28;20170;-90
2022/09/27 10:57:17;;;;;;;3.03;1.90;;;10.90;93.00;;;;;;5013508;28;20275;-89
2022/09/27 10:59:46;;;;;;;3.10;1.77;;;10.90;93.00;;;;;;5013986;28;20205;-90
2022/09/27 11:02:31;;;;;;;5.07;2.00;;;11.00;93.10;;;;;;5014238;28;20198;-90
2022/09/27 11:05:14;;;;;;;3.37;2.23;;;11.00;92.90;;;;;;5012961;28;20189;-90
2022/09/27 11:07:51;;;;;;;4.13;2.37;;;11.00;93.10;;;;;;5012885;28;20165;-89
2022/09/27 11:10:32;;;;;;;5.10;2.43;;;11.10;93.20;;;;;;5014722;28;20575;-92
2022/09/27 11:13:13;;;;;;;5.87;2.40;;;11.10;93.30;;;;;;5015964;28;20292;-90
2022/09/27 11:16:03;;;;;;;5.33;2.60;;;11.10;93.40;;;;;;5013518;28;20189;-91
2022/09/27 11:18:47;;;;;;;5.27;3.07;;;11.20;93.50;;;;;;5014142;28;20180;-90
2022/09/27 11:21:44;;;;;;;6.57;3.70;;;11.20;93.40;;;;;;5015423;28;20188;-91
2022/09/27 11:24:43;;;;;;;6.47;3.53;;;11.20;93.50;;;;;;5015599;28;20236;-91
2022/09/27 11:27:32;;;;;;;4.37;3.40;;;11.20;93.40;;;;;;5016592;28;20216;-91
2022/09/27 11:30:03;;;;;;;5.47;3.60;;;11.30;93.60;;;;;;5013177;28;20607;-90
2022/09/27 11:32:54;;;;;;;7.27;4.43;;;11.30;93.70;;;;;;5012674;28;20198;-90
2022/09/27 11:35:32;;;;;;;6.27;3.23;;;11.40;93.80;;;;;;5014496;28;20169;-90
2022/09/27 11:38:22;;;;;;;3.67;3.37;;;11.30;93.60;;;;;;5015622;28;20705;-90
2022/09/27 11:41:07;;;;;;;7.40;3.50;;;11.20;93.50;;;;;;5013896;28;20165;-90
2022/09/27 11:43:44;;;;;;;4.37;3.40;;;11.20;93.60;;;;;;5014902;28;20211;-91
2022/09/27 11:46:18;;;;;;;5.43;2.90;;;11.30;93.50;;;;;;5014779;28;20192;-92
2022/09/27 11:49:09;;;;;;;7.33;3.23;;;11.30;93.30;;;;;;5014168;28;20170;-91
2022/09/27 11:51:45;;;;;;;6.63;2.97;;;11.30;93.40;;;;;;5016504;28;20260;-92
2022/09/27 11:54:39;;;;;;;3.53;2.63;;;11.30;93.30;;;;;;5014969;28;20180;-91
2022/09/27 11:57:54;;;;;;;5.33;2.40;;;11.30;93.40;;;;;;5013890;28;20169;-91
2022/09/27 12:00:23;;;;;;;2.90;2.20;;;11.40;93.50;;;;;;4949845;28;20284;-91
2022/09/27 12:03:16;;;;;;;3.57;2.30;;;11.30;93.30;;;;;;5020564;28;20213;-91
2022/09/27 12:06:06;;;;;;;2.23;1.80;;;11.30;93.10;;;;;;5021163;28;20204;-91
2022/09/27 12:08:57;;;;;;;4.83;2.07;;;11.30;93.00;;;;;;5020158;28;20592;-90
2022/09/27 12:11:40;;;;;;;3.90;1.93;;;11.50;93.00;;;;;;5023461;28;20207;-91
2022/09/27 12:14:35;;;;;;;1.93;1.83;;;11.50;92.90;;;;;;5019558;28;20173;-92
2022/09/27 12:17:04;;;;;;;2.30;1.70;;;11.60;92.80;;;;;;5023894;28;20185;-91
2022/09/27 12:19:35;;;;;;;2.97;1.70;;;11.50;92.80;;;;;;5026171;28;20182;-91
2022/09/27 12:22:04;;;;;;;2.70;1.60;;;11.50;92.70;;;;;;5022327;28;20235;-91
2022/09/27 12:24:31;;;;;;;3.50;1.53;;;11.50;92.40;;;;;;5019363;28;20208;-90
2022/09/27 12:27:04;;;;;;;4.50;1.50;;;11.60;92.60;;;;;;5019051;28;20176;-91
2022/09/27 12:29:33;;;;;;;2.23;1.60;;;11.60;92.80;;;;;;5017725;28;20189;-92
2022/09/27 12:32:12;;;;;;;3.03;1.80;;;11.80;92.90;;;;;;5018116;28;20260;-91
2022/09/27 12:35:06;;;;;;;5.73;1.70;;;11.80;92.90;;;;;;5019704;28;20248;-91
2022/09/27 12:37:51;;;;;;;2.27;1.40;;;11.80;92.80;;;;;;5020038;28;20173;-91
2022/09/27 12:40:22;;;;;;;1.87;1.43;;;11.80;92.70;;;;;;5020253;28;20205;-91
2022/09/27 12:43:11;;;;;;;3.83;1.70;;;11.80;92.50;;;;;;5021955;28;20316;-91
2022/09/27 12:46:05;;;;;;;1.83;1.60;;;11.80;92.30;;;;;;5016782;28;20263;-91
2022/09/27 12:48:59;;;;;;;5.30;1.90;;;11.90;92.40;;;;;;5016566;28;20176;-91
2022/09/27 12:51:38;;;;;;;3.20;1.50;;;11.70;92.00;;;;;;5017123;28;20204;-91
2022/09/27 12:54:31;;;;;;;2.90;1.60;;;12.00;92.40;;;;;;5018101;28;20185;-91
2022/09/27 12:57:12;;;;;;;1.60;1.50;;;12.10;92.30;;;;;;5016170;28;20170;-90
2022/09/27 12:59:50;;;;;;;3.27;1.70;;;12.30;92.40;;;;;;5018055;28;20176;-91
2022/09/27 13:02:42;;;;;;;4.30;2.10;;;12.30;91.90;;;;;;5019186;28;20232;-91
2022/09/27 13:05:21;;;;;;;2.97;1.70;;;12.30;91.40;;;;;;5016297;28;20181;-91
2022/09/27 13:08:04;;;;;;;3.73;1.80;;;12.40;91.40;;;;;;5017660;28;20169;-91
2022/09/27 13:10:51;;;;;;;1.50;1.40;;;12.50;91.20;;;;;;5016809;28;20236;-92
2022/09/27 13:13:20;;;;;;;2.60;1.40;;;12.60;90.90;;;;;;5019034;28;20204;-91
2022/09/27 13:15:46;;;;;;;1.63;1.37;;;12.60;90.10;;;;;;5018707;28;20177;-91
2022/09/27 13:18:29;;;;;;;4.37;1.30;;;12.60;89.60;;;;;;5019173;28;20174;-91
2022/09/27 13:20:55;;;;;;;7.77;2.47;;;12.50;88.40;;;;;;5015485;28;20173;-91